Homer, Minnesota
Current Conditions -  °F | °C
As of 10:34 PM on Thursday 18 Dec 2014 (Local Time) from KONA Reporting Station
Overcast Overcast  
Wind Chill: 27°   Ceiling: 1700
Heat Index: 27°   Visibility: 10mi
Dew Point: 21°   Wind: 0mph
Humidity: 80%   Direction: NA
Pressure: 30.3"   Gusts: NA
Location:  44.02°N, 91.56°W
Report Text: KONA 190434Z AUTO 00000KT 10SM OVC017 M03/M06 A3030 RMK AO2
Loading
Personal Weather Stations






























Interactive Weather Map New forecast layout! Learn more

10-Day Weather Forecast

Advertisements
Track Severe Weather on mobile